Eagle San Antonio — 9V9330 — position and weather

sailwx.info

Track history (hours):
 
Tides and Currents Weather Stations Pressure Air Temp Water Temp Dewpoint Dewpoint Depression Visibility Wind Speed Wind Dir Waves Ship Positions

Eagle San Antonio

Last reported at 2014-Aug-21 07:33 UTC. Time now 2014-Aug-22 23:39 UTC.
Position N 47°02' W 002°31'.

Length 274 m; draft 10.6 m.

Type: Tanker. MMSI: 566453000.

Date/timePositionNaut miles runAvg speedWind from/ knotsBaromVisibWave heightAir tempDewpointWater temp
2014-Aug-21 07:33N 47°02' W 002°31'10711.8
2014-Aug-20 22:33N 47°45' W 004°56'1711.8
2014-Aug-20 21:07N 47°53' W 005°18'216 8.4
2014-Aug-19 19:14N 49°41' W 000°33'812.0
2014-Aug-19 18:33N 49°37' W 000°22'1211.9
2014-Aug-19 17:33N 49°32' W 000°06'1010.4
2014-Aug-19 16:33N 49°28' E 000°09'0 0.1
2014-Aug-19 15:30N 49°28' E 000°09'0 0.0
2014-Aug-19 14:33N 49°28' E 000°09'0 0.0
2014-Aug-19 13:33N 49°28' E 000°09'0 0.0
2014-Aug-19 12:33N 49°28' E 000°09'0 0.0
2014-Aug-19 11:33N 49°28' E 000°09'0 0.0
2014-Aug-19 10:33N 49°28' E 000°09'0 0.0
2014-Aug-19 09:33N 49°28' E 000°09'0 0.0
2014-Aug-19 08:33N 49°28' E 000°09'0 0.0
2014-Aug-19 07:30N 49°28' E 000°09'0 0.0
2014-Aug-19 06:33N 49°28' E 000°09'0 0.0
2014-Aug-19 05:33N 49°28' E 000°09'0 0.0
2014-Aug-19 04:34N 49°28' E 000°09'0 0.0
2014-Aug-19 03:33N 49°28' E 000°09'0 0.0
2014-Aug-19 02:34N 49°28' E 000°09'0 0.0
2014-Aug-19 01:33N 49°28' E 000°09'0 0.0
2014-Aug-19 00:33N 49°28' E 000°09'0 0.0
2014-Aug-18 23:33N 49°28' E 000°09'0 0.0
2014-Aug-18 22:33N 49°28' E 000°09'0 0.0
2014-Aug-18 21:33N 49°28' E 000°09'0 0.0
2014-Aug-18 20:33N 49°28' E 000°09'0 0.0
2014-Aug-18 19:33N 49°28' E 000°09'0 0.0
2014-Aug-18 18:33N 49°28' E 000°09'0 0.0
2014-Aug-18 17:27N 49°28' E 000°09'0 0.0
2014-Aug-18 16:33N 49°28' E 000°09'0 0.0
2014-Aug-18 15:34N 49°28' E 000°09'0 0.0
2014-Aug-18 14:33N 49°28' E 000°09'2 1.9
2014-Aug-18 13:33N 49°29' E 000°07'1110.6
2014-Aug-18 12:33N 49°33' W 000°09'4 4.2
2014-Aug-18 11:33N 49°34' W 000°15'5 4.9
2014-Aug-18 10:32N 49°36' W 000°22'3 3.4
2014-Aug-18 09:33N 49°37' W 000°27'1 1.3
2014-Aug-18 08:33N 49°38' W 000°29'7 6.6
2014-Aug-18 07:33N 49°41' W 000°38'  
2014-Aug-11 18:28N 23°23' W 017°36'  
Track history (hours):
 
Tides and Currents Weather Stations Pressure Air Temp Water Temp Dewpoint Dewpoint Depression Visibility Wind Speed Wind Dir Waves Ship Positions

Eagle San Antonio

Last reported at 2014-Aug-21 07:33 UTC. Time now 2014-Aug-22 23:39 UTC.
Position N 47°02' W 002°31'.

Length 274 m; draft 10.6 m.

Type: Tanker. MMSI: 566453000.

Date/timePositionNaut miles runAvg speedWind from/ knotsBaromVisibWave heightAir tempDewpointWater temp
2014-Aug-21 07:33N 47°02' W 002°31'10711.8
2014-Aug-20 22:33N 47°45' W 004°56'1711.8
2014-Aug-20 21:07N 47°53' W 005°18'216 8.4
2014-Aug-19 19:14N 49°41' W 000°33'812.0
2014-Aug-19 18:33N 49°37' W 000°22'1211.9
2014-Aug-19 17:33N 49°32' W 000°06'1010.4
2014-Aug-19 16:33N 49°28' E 000°09'0 0.1
2014-Aug-19 15:30N 49°28' E 000°09'0 0.0
2014-Aug-19 14:33N 49°28' E 000°09'0 0.0
2014-Aug-19 13:33N 49°28' E 000°09'0 0.0
2014-Aug-19 12:33N 49°28' E 000°09'0 0.0
2014-Aug-19 11:33N 49°28' E 000°09'0 0.0
2014-Aug-19 10:33N 49°28' E 000°09'0 0.0
2014-Aug-19 09:33N 49°28' E 000°09'0 0.0
2014-Aug-19 08:33N 49°28' E 000°09'0 0.0
2014-Aug-19 07:30N 49°28' E 000°09'0 0.0
2014-Aug-19 06:33N 49°28' E 000°09'0 0.0
2014-Aug-19 05:33N 49°28' E 000°09'0 0.0
2014-Aug-19 04:34N 49°28' E 000°09'0 0.0
2014-Aug-19 03:33N 49°28' E 000°09'0 0.0
2014-Aug-19 02:34N 49°28' E 000°09'0 0.0
2014-Aug-19 01:33N 49°28' E 000°09'0 0.0
2014-Aug-19 00:33N 49°28' E 000°09'0 0.0
2014-Aug-18 23:33N 49°28' E 000°09'0 0.0
2014-Aug-18 22:33N 49°28' E 000°09'0 0.0
2014-Aug-18 21:33N 49°28' E 000°09'0 0.0
2014-Aug-18 20:33N 49°28' E 000°09'0 0.0
2014-Aug-18 19:33N 49°28' E 000°09'0 0.0
2014-Aug-18 18:33N 49°28' E 000°09'0 0.0
2014-Aug-18 17:27N 49°28' E 000°09'0 0.0
2014-Aug-18 16:33N 49°28' E 000°09'0 0.0
2014-Aug-18 15:34N 49°28' E 000°09'0 0.0
2014-Aug-18 14:33N 49°28' E 000°09'2 1.9
2014-Aug-18 13:33N 49°29' E 000°07'1110.6
2014-Aug-18 12:33N 49°33' W 000°09'4 4.2
2014-Aug-18 11:33N 49°34' W 000°15'5 4.9
2014-Aug-18 10:32N 49°36' W 000°22'3 3.4
2014-Aug-18 09:33N 49°37' W 000°27'1 1.3
2014-Aug-18 08:33N 49°38' W 000°29'7 6.6
2014-Aug-18 07:33N 49°41' W 000°38'  
2014-Aug-11 18:28N 23°23' W 017°36'  

Dump ship's entire track history